createdAt,value
2018-11-04T00:00:49.219Z,19.60
2018-11-04T00:03:18.454Z,23.30
2018-11-04T00:05:47.674Z,22.70
2018-11-04T00:08:16.657Z,28.47
2018-11-04T00:10:45.941Z,24.70
2018-11-04T00:13:14.900Z,23.20
2018-11-04T00:15:44.480Z,24.00
2018-11-04T00:18:13.536Z,20.33
2018-11-04T00:20:42.798Z,29.43
2018-11-04T00:23:12.654Z,24.90
2018-11-04T00:25:41.919Z,29.20
2018-11-04T00:28:11.470Z,26.35
2018-11-04T00:30:40.879Z,28.70
2018-11-04T00:33:10.734Z,30.97
2018-11-04T00:35:39.662Z,32.87
2018-11-04T00:38:09.082Z,28.60
2018-11-04T00:40:38.630Z,29.83
2018-11-04T00:43:08.065Z,32.30
2018-11-04T00:45:37.659Z,32.40
2018-11-04T00:48:07.102Z,27.80
2018-11-04T00:50:36.555Z,38.33
2018-11-04T00:53:05.782Z,33.17
2018-11-04T00:55:35.050Z,29.87
2018-11-04T00:58:04.614Z,33.38
2018-11-04T01:00:33.889Z,38.33
2018-11-04T01:03:03.130Z,32.70
2018-11-04T01:05:32.595Z,43.57
2018-11-04T01:08:02.161Z,36.93
2018-11-04T01:10:43.982Z,39.17
2018-11-04T01:13:13.678Z,34.75
2018-11-04T01:15:42.938Z,29.17
2018-11-04T01:18:12.494Z,33.92
2018-11-04T01:20:41.774Z,34.87
2018-11-04T01:23:11.331Z,42.40
2018-11-04T01:25:40.506Z,34.70
2018-11-04T01:28:10.067Z,35.90
2018-11-04T01:30:39.307Z,36.05
2018-11-04T01:33:08.594Z,42.10
2018-11-04T01:35:37.898Z,35.00
2018-11-04T01:38:07.470Z,36.80
2018-11-04T01:40:36.762Z,32.47
2018-11-04T01:43:06.145Z,39.00
2018-11-04T01:45:35.737Z,33.40
2018-11-04T01:48:04.941Z,40.90
2018-11-04T01:50:34.175Z,37.55
2018-11-04T01:53:03.738Z,40.70
2018-11-04T01:55:33.263Z,40.97
2018-11-04T01:58:02.686Z,39.63
2018-11-04T02:00:32.228Z,35.53
2018-11-04T02:03:01.509Z,39.75
2018-11-04T02:05:30.774Z,40.57
2018-11-04T02:07:59.710Z,36.77
2018-11-04T02:10:28.989Z,35.30
2018-11-04T02:12:58.561Z,36.53
2018-11-04T02:15:27.834Z,34.93
2018-11-04T02:17:57.822Z,35.27
2018-11-04T02:20:27.079Z,37.13
2018-11-04T02:22:57.742Z,36.00
2018-11-04T02:25:27.006Z,40.77
2018-11-04T02:27:57.962Z,31.15
2018-11-04T02:30:27.422Z,29.97
2018-11-04T02:32:57.825Z,34.20
2018-11-04T02:35:27.695Z,36.10
2018-11-04T02:37:57.815Z,35.58
2018-11-04T02:40:27.835Z,33.60
2018-11-04T02:42:57.887Z,32.58
2018-11-04T02:45:27.582Z,34.50
2018-11-04T02:47:57.914Z,39.53
2018-11-04T02:50:27.466Z,30.87
2018-11-04T02:52:57.832Z,37.90
2018-11-04T02:55:27.398Z,38.17
2018-11-04T02:57:57.954Z,36.33
2018-11-04T03:00:27.540Z,34.93
2018-11-04T03:02:58.173Z,36.70
2018-11-04T03:05:27.590Z,35.10
2018-11-04T03:07:57.932Z,35.38
2018-11-04T03:10:27.629Z,37.57
2018-11-04T03:12:57.949Z,27.05
2018-11-04T03:15:27.530Z,37.05
2018-11-04T03:17:57.941Z,31.70
2018-11-04T03:20:27.514Z,31.25
2018-11-04T03:22:57.845Z,29.87
2018-11-04T03:25:27.426Z,35.73
2018-11-04T03:27:58.066Z,33.45
2018-11-04T03:30:27.553Z,34.20
2018-11-04T03:32:57.944Z,39.35
2018-11-04T03:35:27.711Z,41.13
2018-11-04T03:37:57.931Z,35.45
2018-11-04T03:40:27.665Z,40.15
2018-11-04T03:42:57.961Z,40.75
2018-11-04T03:45:27.686Z,41.13
2018-11-04T03:47:58.005Z,40.85
2018-11-04T03:50:27.270Z,40.70
2018-11-04T03:52:57.824Z,41.30
2018-11-04T03:55:26.828Z,42.00
2018-11-04T03:57:57.641Z,42.45
2018-11-04T04:00:26.926Z,40.77
2018-11-04T04:02:56.569Z,42.80
2018-11-04T04:05:25.821Z,40.70
2018-11-04T04:07:55.102Z,43.93
2018-11-04T04:10:24.845Z,40.20
2018-11-04T04:12:54.106Z,37.70
2018-11-04T04:15:23.567Z,40.50
2018-11-04T04:17:53.026Z,42.70
2018-11-04T04:20:22.582Z,37.45
2018-11-04T04:22:51.870Z,38.63
2018-11-04T04:25:21.146Z,35.27
2018-11-04T04:27:50.410Z,33.27
2018-11-04T04:30:19.732Z,32.90
2018-11-04T04:32:49.262Z,32.13
2018-11-04T04:35:18.535Z,33.50
2018-11-04T04:37:47.982Z,28.23
2018-11-04T04:40:17.253Z,30.00
2018-11-04T04:42:46.839Z,27.70
2018-11-04T04:45:16.113Z,29.77
2018-11-04T04:47:45.670Z,30.02
2018-11-04T04:50:15.114Z,30.60
2018-11-04T04:52:44.385Z,28.40
2018-11-04T04:55:13.900Z,34.20
2018-11-04T04:57:43.183Z,24.37
2018-11-04T05:00:12.757Z,31.50
2018-11-04T05:02:42.388Z,36.13
2018-11-04T05:05:11.947Z,33.67
2018-11-04T05:07:41.214Z,30.87
2018-11-04T05:10:10.453Z,33.05
2018-11-04T05:12:39.958Z,30.90
2018-11-04T05:15:09.516Z,34.70
2018-11-04T05:17:38.943Z,30.73
2018-11-04T05:20:07.882Z,33.40
2018-11-04T05:22:37.152Z,52.50
2018-11-04T05:25:06.411Z,32.67
2018-11-04T05:27:35.960Z,40.47
2018-11-04T05:30:04.866Z,37.93
2018-11-04T05:32:34.348Z,39.70
2018-11-04T05:35:03.666Z,31.12
2018-11-04T05:37:32.821Z,39.80
2018-11-04T05:40:02.312Z,38.37
2018-11-04T05:42:31.963Z,33.40
2018-11-04T05:45:01.886Z,35.25
2018-11-04T05:47:31.329Z,32.80
2018-11-04T05:50:01.058Z,34.10
2018-11-04T05:52:30.326Z,30.33
2018-11-04T05:54:59.898Z,37.58
2018-11-04T05:57:29.178Z,34.30
2018-11-04T05:59:58.110Z,30.37
2018-11-04T06:02:26.806Z,36.90
2018-11-04T06:04:56.130Z,35.50
2018-11-04T06:07:25.394Z,30.87
2018-11-04T06:09:54.963Z,36.03
2018-11-04T06:12:24.073Z,35.40
2018-11-04T06:14:53.559Z,36.30
2018-11-04T06:17:22.930Z,34.50
2018-11-04T06:19:52.233Z,36.00
2018-11-04T06:22:21.948Z,38.57
2018-11-04T06:24:51.201Z,37.57
2018-11-04T06:27:20.470Z,44.37
2018-11-04T06:29:50.481Z,39.47
2018-11-04T06:32:20.090Z,34.67
2018-11-04T06:34:49.574Z,32.97
2018-11-04T06:37:19.119Z,33.50
2018-11-04T06:39:48.385Z,38.67
2018-11-04T06:42:18.153Z,38.77
2018-11-04T06:44:47.420Z,38.23
2018-11-04T06:47:17.500Z,39.90
2018-11-04T06:49:47.062Z,44.18
2018-11-04T06:52:16.510Z,37.77
2018-11-04T06:54:46.066Z,45.67
2018-11-04T06:57:15.333Z,40.53
2018-11-04T06:59:44.622Z,46.43
2018-11-04T07:02:14.022Z,42.48
2018-11-04T07:04:43.349Z,48.47
2018-11-04T07:07:13.101Z,49.73
2018-11-04T07:09:42.380Z,44.20
2018-11-04T07:12:11.641Z,48.53
2018-11-04T07:14:41.199Z,45.83
2018-11-04T07:17:10.537Z,46.27
2018-11-04T07:19:39.810Z,50.10
2018-11-04T07:22:09.341Z,51.77
2018-11-04T07:24:38.626Z,50.60
2018-11-04T07:27:07.862Z,52.23
2018-11-04T07:29:37.197Z,51.77
2018-11-04T07:32:06.741Z,49.07
2018-11-04T07:34:36.005Z,52.50
2018-11-04T07:37:05.277Z,52.50
2018-11-04T07:39:34.561Z,55.57
2018-11-04T07:42:03.879Z,54.53
2018-11-04T07:44:33.190Z,48.57
2018-11-04T07:47:03.527Z,46.02
2018-11-04T07:49:32.466Z,55.70
2018-11-04T07:52:01.882Z,55.53
2018-11-04T07:54:31.287Z,51.63
2018-11-04T07:57:00.656Z,51.73
2018-11-04T07:59:30.318Z,66.23
2018-11-04T08:02:00.373Z,57.90
2018-11-04T08:04:29.957Z,61.63
2018-11-04T08:06:59.293Z,65.23
2018-11-04T08:09:28.578Z,61.50
2018-11-04T08:11:58.645Z,69.17
2018-11-04T08:14:27.675Z,67.67
2018-11-04T08:16:56.951Z,67.53
2018-11-04T08:19:26.466Z,65.27
2018-11-04T08:21:55.750Z,55.93
2018-11-04T08:24:25.334Z,55.77
2018-11-04T08:26:54.293Z,60.60
2018-11-04T08:29:23.697Z,59.90
2018-11-04T08:31:53.165Z,65.20
2018-11-04T08:34:22.446Z,58.87
2018-11-04T08:36:51.727Z,62.90
2018-11-04T08:39:21.294Z,56.02
2018-11-04T08:41:50.849Z,55.73
2018-11-04T08:44:20.302Z,56.50
2018-11-04T08:46:49.642Z,60.87
2018-11-04T08:49:19.147Z,62.90
2018-11-04T08:51:48.469Z,64.37
2018-11-04T08:54:17.918Z,71.53
2018-11-04T08:56:47.439Z,69.03
2018-11-04T08:59:16.972Z,65.87
2018-11-04T09:01:46.530Z,61.40
2018-11-04T09:04:15.819Z,66.50
2018-11-04T09:06:45.375Z,58.37
2018-11-04T09:09:14.882Z,63.90
2018-11-04T09:11:44.693Z,61.67
2018-11-04T09:14:14.333Z,60.08
2018-11-04T09:16:43.466Z,57.80
2018-11-04T09:19:12.746Z,53.10
2018-11-04T09:21:42.394Z,63.90
2018-11-04T09:24:11.820Z,58.37
2018-11-04T09:26:41.462Z,57.87
2018-11-04T09:29:11.412Z,58.00
2018-11-04T09:31:40.844Z,57.73
2018-11-04T09:34:10.067Z,60.33
2018-11-04T09:36:39.667Z,58.30
2018-11-04T09:39:14.901Z,59.63
2018-11-04T09:41:44.437Z,53.50
2018-11-04T09:44:14.007Z,53.00
2018-11-04T09:46:43.007Z,53.43
2018-11-04T09:49:12.344Z,55.73
2018-11-04T09:51:41.608Z,55.47
2018-11-04T09:54:10.889Z,56.30
2018-11-04T09:56:40.546Z,51.02
2018-11-04T09:59:09.985Z,49.98
2018-11-04T10:01:39.545Z,55.50
2018-11-04T10:04:08.498Z,54.50
2018-11-04T10:06:37.769Z,58.93
2018-11-04T10:09:06.794Z,55.73
2018-11-04T10:11:36.069Z,60.63
2018-11-04T10:14:05.295Z,61.40
2018-11-04T10:16:34.542Z,55.43
2018-11-04T10:19:03.996Z,51.30
2018-11-04T10:21:33.873Z,51.80
2018-11-04T10:24:03.182Z,54.77
2018-11-04T10:26:32.230Z,50.67
2018-11-04T10:29:01.812Z,53.97
2018-11-04T10:31:31.562Z,52.85
2018-11-04T10:34:01.270Z,52.30
2018-11-04T10:36:31.805Z,57.83
2018-11-04T10:39:01.329Z,50.83
2018-11-04T10:41:30.606Z,49.30
2018-11-04T10:44:00.857Z,45.85
2018-11-04T10:46:38.054Z,50.20
2018-11-04T10:49:07.275Z,46.88
2018-11-04T10:51:36.751Z,48.63
2018-11-04T10:54:05.697Z,41.00
2018-11-04T10:56:34.629Z,43.63
2018-11-04T10:59:04.194Z,41.63
2018-11-04T11:01:33.208Z,41.60
2018-11-04T11:04:02.772Z,36.00
2018-11-04T11:06:32.047Z,40.27
2018-11-04T11:09:01.630Z,35.48
2018-11-04T11:11:30.956Z,38.60
2018-11-04T11:14:02.106Z,39.40
2018-11-04T11:16:31.651Z,40.23
2018-11-04T11:19:01.029Z,44.43
2018-11-04T11:24:15.568Z,43.97
2018-11-04T11:26:45.046Z,44.07
2018-11-04T11:29:14.345Z,39.30
2018-11-04T11:31:43.858Z,39.30
2018-11-04T11:34:12.799Z,41.63
2018-11-04T11:36:42.070Z,45.93
2018-11-04T11:39:11.126Z,48.10
2018-11-04T11:41:40.390Z,44.90
2018-11-04T11:44:09.954Z,45.97
2018-11-04T11:46:52.106Z,42.03
2018-11-04T11:49:24.054Z,43.13
2018-11-04T11:51:53.875Z,41.73
2018-11-04T11:54:23.165Z,42.17
2018-11-04T11:56:52.421Z,45.47
2018-11-04T11:59:21.920Z,40.60
2018-11-04T12:01:51.346Z,44.23
2018-11-04T12:04:20.875Z,44.00
2018-11-04T12:06:50.334Z,48.23
2018-11-04T12:09:19.849Z,46.33
2018-11-04T12:11:49.114Z,45.13
2018-11-04T12:14:18.384Z,47.40
2018-11-04T12:16:47.994Z,43.10
2018-11-04T12:19:17.970Z,42.03
2018-11-04T12:21:46.914Z,48.60
2018-11-04T12:24:16.198Z,47.17
2018-11-04T12:26:45.753Z,45.28
2018-11-04T12:29:15.060Z,48.55
2018-11-04T12:31:44.346Z,43.80
2018-11-04T12:34:13.918Z,50.28
2018-11-04T12:36:43.186Z,46.97
2018-11-04T12:39:12.758Z,50.17
2018-11-04T12:41:42.040Z,44.00
2018-11-04T12:44:12.066Z,44.38
2018-11-04T12:46:41.460Z,46.80
2018-11-04T12:49:11.171Z,45.53
2018-11-04T12:51:40.935Z,48.13
2018-11-04T12:54:10.726Z,47.37
2018-11-04T12:56:39.994Z,46.57
2018-11-04T12:59:08.865Z,47.65
2018-11-04T13:01:38.154Z,45.77
2018-11-04T13:04:07.101Z,49.33
2018-11-04T13:06:36.365Z,46.37
2018-11-04T13:09:05.930Z,46.43
2018-11-04T13:11:35.331Z,44.70
2018-11-04T13:14:04.692Z,49.63
2018-11-04T13:16:34.138Z,45.47
2018-11-04T13:19:03.873Z,42.10
2018-11-04T13:21:33.150Z,41.30
2018-11-04T13:24:02.442Z,46.30
2018-11-04T13:26:31.893Z,43.17
2018-11-04T13:29:01.268Z,45.93
2018-11-04T13:31:30.546Z,47.30
2018-11-04T13:34:00.431Z,45.43
2018-11-04T13:36:30.014Z,44.85
2018-11-04T13:38:59.409Z,46.17
2018-11-04T13:41:28.945Z,45.40
2018-11-04T13:43:59.313Z,44.70
2018-11-04T13:46:28.709Z,41.03
2018-11-04T13:48:59.042Z,42.77
2018-11-04T13:51:28.322Z,49.10
2018-11-04T13:53:57.814Z,45.67
2018-11-04T13:56:30.133Z,40.20
2018-11-04T13:58:59.507Z,45.73
2018-11-04T14:01:29.078Z,45.78
2018-11-04T14:03:59.287Z,44.45
2018-11-04T14:06:28.570Z,43.83
2018-11-04T14:08:59.057Z,47.30
2018-11-04T14:11:28.329Z,46.30
2018-11-04T14:13:57.614Z,47.87
2018-11-04T14:16:27.230Z,40.10
2018-11-04T14:18:56.502Z,41.07
2018-11-04T14:21:26.193Z,41.83
2018-11-04T14:23:55.555Z,41.80
2018-11-04T14:26:25.078Z,40.23
2018-11-04T14:28:54.365Z,43.97
2018-11-04T14:31:23.654Z,44.30
2018-11-04T14:33:53.248Z,48.37
2018-11-04T14:36:22.548Z,44.73
2018-11-04T14:38:52.213Z,42.60
2018-11-04T14:41:23.594Z,43.33
2018-11-04T14:44:01.448Z,45.28
2018-11-04T14:46:32.121Z,43.00
2018-11-04T14:49:02.641Z,42.43
2018-11-04T14:51:32.243Z,47.63
2018-11-04T14:54:01.561Z,43.20
2018-11-04T14:56:31.145Z,41.90
2018-11-04T14:59:01.605Z,40.53
2018-11-04T15:01:30.963Z,49.00
2018-11-04T15:04:00.567Z,45.63
2018-11-04T15:06:29.854Z,39.40
2018-11-04T15:09:00.413Z,44.73
2018-11-04T15:11:29.677Z,43.40
2018-11-04T15:13:59.658Z,46.48
2018-11-04T15:16:29.209Z,44.65
2018-11-04T15:18:59.764Z,47.88
2018-11-04T15:21:29.353Z,45.07
2018-11-04T15:23:59.625Z,54.93
2018-11-04T15:26:29.272Z,48.23
2018-11-04T15:28:59.689Z,45.33
2018-11-04T15:31:28.713Z,45.90
2018-11-04T15:33:59.464Z,45.97
2018-11-04T15:36:28.825Z,46.80
2018-11-04T15:39:03.028Z,47.98
2018-11-04T15:41:32.591Z,51.87
2018-11-04T15:44:01.831Z,54.17
2018-11-04T15:46:31.489Z,50.53
2018-11-04T15:49:00.598Z,48.47
2018-11-04T15:51:29.414Z,44.07
2018-11-04T15:53:59.313Z,50.90
2018-11-04T15:56:28.037Z,47.83
2018-11-04T15:58:57.489Z,44.80
2018-11-04T16:01:26.781Z,45.30
2018-11-04T16:03:56.359Z,50.85
2018-11-04T16:06:25.863Z,47.93
2018-11-04T16:08:55.178Z,53.43
2018-11-04T16:11:24.505Z,49.60
2018-11-04T16:13:53.779Z,52.20
2018-11-04T16:16:23.160Z,52.63
2018-11-04T16:18:52.551Z,55.77
2018-11-04T16:21:21.989Z,49.50
2018-11-04T16:23:51.415Z,50.60
2018-11-04T16:26:20.710Z,54.97
2018-11-04T16:28:50.277Z,51.97
2018-11-04T16:31:19.602Z,55.30
2018-11-04T16:33:48.883Z,54.90
2018-11-04T16:36:18.699Z,55.10
2018-11-04T16:38:48.083Z,60.27
2018-11-04T16:41:18.266Z,62.80
2018-11-04T16:43:48.070Z,63.00
2018-11-04T16:46:17.827Z,58.33
2018-11-04T16:48:47.359Z,57.17
2018-11-04T16:51:16.662Z,57.60
2018-11-04T16:53:46.470Z,52.57
2018-11-04T16:56:15.862Z,56.20
2018-11-04T16:58:45.521Z,54.45
2018-11-04T17:01:15.032Z,58.83
2018-11-04T17:03:44.649Z,58.20
2018-11-04T17:06:13.604Z,54.83
2018-11-04T17:08:43.106Z,59.73
2018-11-04T17:11:12.715Z,60.08
2018-11-04T17:13:42.122Z,46.47
2018-11-04T17:16:11.693Z,56.30
2018-11-04T17:18:40.986Z,51.60
2018-11-04T17:21:10.541Z,54.95
2018-11-04T17:23:39.794Z,51.17
2018-11-04T17:26:09.197Z,50.13
2018-11-04T17:28:39.444Z,55.63
2018-11-04T17:31:09.026Z,56.57
2018-11-04T17:33:38.506Z,58.55
2018-11-04T17:36:07.589Z,65.08
2018-11-04T17:38:36.981Z,53.43
2018-11-04T17:41:05.954Z,63.15
2018-11-04T17:43:35.252Z,56.70
2018-11-04T17:46:04.266Z,65.95
2018-11-04T17:48:33.463Z,94.77
2018-11-04T17:51:02.757Z,65.60
2018-11-04T17:53:32.044Z,58.47
2018-11-04T17:56:02.208Z,60.17
2018-11-04T17:58:31.735Z,58.13
2018-11-04T18:01:01.007Z,57.37
2018-11-04T18:03:30.606Z,63.83
2018-11-04T18:06:00.012Z,55.97
2018-11-04T18:08:29.326Z,55.97
2018-11-04T18:11:00.054Z,56.30
2018-11-04T18:13:30.239Z,62.00
2018-11-04T18:16:01.146Z,57.78
2018-11-04T18:18:30.522Z,54.60
2018-11-04T18:21:00.071Z,52.00
2018-11-04T18:23:30.023Z,56.37
2018-11-04T18:26:00.266Z,53.02
2018-11-04T18:28:29.876Z,50.87
2018-11-04T18:31:00.207Z,47.20
2018-11-04T18:33:29.262Z,51.63
2018-11-04T18:36:00.089Z,51.60
2018-11-04T18:38:29.722Z,51.90
2018-11-04T18:41:00.482Z,51.48
2018-11-04T18:43:29.884Z,48.10
2018-11-04T18:46:00.217Z,51.40
2018-11-04T18:48:29.835Z,59.77
2018-11-04T18:51:00.139Z,52.85
2018-11-04T18:53:29.763Z,48.57
2018-11-04T18:56:00.079Z,57.50
2018-11-04T18:58:29.387Z,53.17
2018-11-04T19:01:02.146Z,47.88
2018-11-04T19:03:31.381Z,48.93
2018-11-04T19:06:01.242Z,48.10
2018-11-04T19:08:30.830Z,43.37
2018-11-04T19:11:00.185Z,45.00
2018-11-04T19:13:29.932Z,39.40
2018-11-04T19:16:00.289Z,41.85
2018-11-04T19:18:30.223Z,37.95
2018-11-04T19:21:00.605Z,37.93
2018-11-04T19:23:29.681Z,34.10
2018-11-04T19:26:00.137Z,28.92
2018-11-04T19:28:29.958Z,29.52
2018-11-04T19:31:00.401Z,28.70
2018-11-04T19:33:29.961Z,29.87
2018-11-04T19:36:00.763Z,33.80
2018-11-04T19:38:31.138Z,24.30
2018-11-04T19:41:00.810Z,24.90
2018-11-04T19:43:30.082Z,23.27
2018-11-04T19:46:00.274Z,19.02
2018-11-04T19:48:29.847Z,19.27
2018-11-04T19:51:00.416Z,20.37
2018-11-04T19:53:29.999Z,19.50
2018-11-04T19:56:00.221Z,18.87
2018-11-04T19:58:29.497Z,20.00
2018-11-04T20:00:58.603Z,19.73
2018-11-04T20:03:28.093Z,18.43
2018-11-04T20:05:57.436Z,20.63
2018-11-04T20:08:26.621Z,21.83
2018-11-04T20:10:56.305Z,20.77
2018-11-04T20:16:25.422Z,20.85
2018-11-04T20:18:54.874Z,21.97
2018-11-04T20:21:24.201Z,21.30
2018-11-04T20:23:53.717Z,19.83
2018-11-04T20:26:23.090Z,21.90
2018-11-04T20:28:52.213Z,18.97
2018-11-04T20:31:21.724Z,20.23
2018-11-04T20:33:50.465Z,15.30
2018-11-04T20:36:20.057Z,16.50
2018-11-04T20:38:48.861Z,18.80
2018-11-04T20:41:28.251Z,18.60
2018-11-04T20:43:57.890Z,19.00
2018-11-04T20:46:27.286Z,17.70
2018-11-04T20:52:07.528Z,18.32
2018-11-04T20:54:37.195Z,18.00
2018-11-04T21:00:04.029Z,19.77
2018-11-04T21:02:33.627Z,16.30
2018-11-04T21:05:10.730Z,18.30
2018-11-04T21:07:40.252Z,21.10
2018-11-04T21:10:09.461Z,19.23
2018-11-04T21:12:39.058Z,21.30
2018-11-04T21:15:08.442Z,19.48
2018-11-04T21:17:38.098Z,19.60
2018-11-04T21:20:06.831Z,20.27
2018-11-04T21:22:36.378Z,20.30
2018-11-04T21:25:05.080Z,19.80
2018-11-04T21:27:34.559Z,18.17
2018-11-04T21:30:03.740Z,20.52
2018-11-04T21:32:33.166Z,22.27
2018-11-04T21:35:02.467Z,18.90
2018-11-04T21:37:31.737Z,22.87
2018-11-04T21:40:01.887Z,18.10
2018-11-04T21:42:31.508Z,19.90
2018-11-04T21:45:01.258Z,20.87
2018-11-04T21:47:30.711Z,19.90
2018-11-04T21:50:00.571Z,21.25
2018-11-04T21:52:30.466Z,22.40
2018-11-04T21:55:00.708Z,20.97
2018-11-04T21:57:30.261Z,20.70
2018-11-04T22:00:01.041Z,21.97
2018-11-04T22:02:30.506Z,20.57
2018-11-04T22:05:01.079Z,22.82
2018-11-04T22:07:30.470Z,22.23
2018-11-04T22:10:00.918Z,22.80
2018-11-04T22:12:30.246Z,20.87
2018-11-04T22:15:00.661Z,23.10
2018-11-04T22:17:29.950Z,22.37
2018-11-04T22:20:00.521Z,19.10
2018-11-04T22:22:30.921Z,22.47
2018-11-04T22:25:00.886Z,20.82
2018-11-04T22:27:30.399Z,19.80
2018-11-04T22:30:02.571Z,23.00
2018-11-04T22:32:31.859Z,21.57
2018-11-04T22:35:01.418Z,19.17
2018-11-04T22:37:30.824Z,23.23
2018-11-04T22:40:00.682Z,21.47
2018-11-04T22:42:29.957Z,22.07
2018-11-04T22:45:00.790Z,21.70
2018-11-04T22:47:30.430Z,22.93
2018-11-04T22:50:00.670Z,21.75
2018-11-04T22:52:30.262Z,26.20
2018-11-04T22:55:00.833Z,27.75
2018-11-04T22:57:30.400Z,24.77
2018-11-04T23:00:01.124Z,23.57
2018-11-04T23:02:30.238Z,25.23
2018-11-04T23:05:03.036Z,25.48
2018-11-04T23:07:32.334Z,28.70
2018-11-04T23:10:01.867Z,23.90
2018-11-04T23:12:31.400Z,25.40
2018-11-04T23:15:00.850Z,23.10
2018-11-04T23:17:30.441Z,23.97
2018-11-04T23:20:01.824Z,24.82
2018-11-04T23:22:31.619Z,19.42
2018-11-04T23:25:01.280Z,22.13
2018-11-04T23:27:30.738Z,19.27
2018-11-04T23:30:00.770Z,19.15
2018-11-04T23:32:30.364Z,21.23
2018-11-04T23:35:01.195Z,21.00
2018-11-04T23:37:30.622Z,18.90
2018-11-04T23:40:00.802Z,22.55
2018-11-04T23:42:29.919Z,21.93
2018-11-04T23:45:00.758Z,22.06
2018-11-04T23:47:30.331Z,22.93
2018-11-04T23:50:00.878Z,20.52
2018-11-04T23:52:30.465Z,23.50
2018-11-04T23:55:00.890Z,21.35
2018-11-04T23:57:30.466Z,20.70
